Time;durP1;ratioP1;P1;durP2;ratioP2;P2;SDS_P1;SDS_P2;PMS_P1;PMS_P2;Temp;Humidity;BMP_temperature;BMP_pressure;BME280_temperature;BME280_humidity;BME280_pressure;Samples;Min_cycle;Max_cycle;Signal;HPM_P1;HPM_P2
2021/09/30 00:02:20;;;;;;;15.90;12.77;;;17.40;90.80;;;;;;5070925;28;20040;-67
2021/09/30 00:04:47;;;;;;;14.55;12.15;;;17.30;90.00;;;;;;5070600;28;20040;-67
2021/09/30 00:07:13;;;;;;;15.52;11.82;;;17.30;89.00;;;;;;5070811;28;20028;-68
2021/09/30 00:09:44;;;;;;;14.93;11.95;;;17.30;88.60;;;;;;5070246;28;20028;-68
2021/09/30 00:12:15;;;;;;;17.45;11.80;;;17.30;88.60;;;;;;5070964;28;20491;-67
2021/09/30 00:33:45;;;;;;;10.52;8.25;;;17.20;83.60;;;;;;5073220;28;20357;-67
2021/09/30 00:51:12;;;;;;;12.25;8.20;;;17.00;84.20;;;;;;5009410;28;20049;-67
2021/09/30 00:53:43;;;;;;;10.50;7.95;;;17.00;84.50;;;;;;5006780;28;20478;-67
2021/09/30 01:34:11;;;;;;;9.63;7.75;;;16.90;82.30;;;;;;5033278;28;20468;-68
2021/09/30 02:19:05;;;;;;;15.10;11.45;;;16.40;88.70;;;;;;5033948;28;20526;-68
2021/09/30 02:24:35;;;;;;;15.77;10.75;;;16.30;88.80;;;;;;5051553;28;20032;-67
2021/09/30 03:00:25;;;;;;;13.93;11.00;;;16.30;90.10;;;;;;5033099;28;20036;-68
2021/09/30 03:02:53;;;;;;;15.05;11.35;;;16.30;90.00;;;;;;5033273;28;20499;-68
2021/09/30 03:05:21;;;;;;;19.17;12.25;;;16.30;89.60;;;;;;5033243;28;20024;-67
2021/09/30 03:07:51;;;;;;;15.52;11.02;;;16.20;90.00;;;;;;5033386;28;20040;-67
2021/09/30 03:10:19;;;;;;;16.15;11.68;;;16.20;90.20;;;;;;5033348;28;20043;-68
2021/09/30 03:12:49;;;;;;;14.38;12.07;;;16.20;90.20;;;;;;5033362;28;20029;-68
2021/09/30 03:18:00;;;;;;;16.73;11.65;;;16.10;90.20;;;;;;5053086;28;20403;-67
2021/09/30 03:20:52;;;;;;;14.63;11.32;;;16.00;90.30;;;;;;5053018;28;20044;-67
2021/09/30 03:23:20;;;;;;;16.65;11.55;;;16.00;90.40;;;;;;5049802;28;20052;-68
2021/09/30 03:25:49;;;;;;;14.68;11.13;;;15.90;90.40;;;;;;5053020;28;20488;-67
2021/09/30 03:28:18;;;;;;;17.63;11.95;;;15.90;90.30;;;;;;5070756;28;20029;-67
2021/09/30 03:30:46;;;;;;;19.52;11.15;;;15.90;90.40;;;;;;5053124;28;20024;-67
2021/09/30 03:33:14;;;;;;;15.80;11.35;;;15.90;90.30;;;;;;5069736;28;20472;-67
2021/09/30 03:35:50;;;;;;;14.77;10.18;;;15.90;90.40;;;;;;5053070;28;20036;-67
2021/09/30 03:38:20;;;;;;;16.48;11.82;;;15.80;90.40;;;;;;5069470;28;20037;-67
2021/09/30 03:40:47;;;;;;;14.23;11.63;;;15.90;90.40;;;;;;5052981;28;20025;-67
2021/09/30 03:43:14;;;;;;;15.00;10.88;;;15.90;90.50;;;;;;5052424;28;20048;-67
2021/09/30 03:45:40;;;;;;;13.38;11.10;;;15.80;90.50;;;;;;5052871;28;20345;-67
2021/09/30 03:48:18;;;;;;;15.48;10.93;;;15.80;90.60;;;;;;5052409;28;20024;-66
2021/09/30 03:53:46;;;;;;;15.98;10.85;;;15.70;90.60;;;;;;5055754;28;20043;-67
2021/09/30 04:01:28;;;;;;;15.70;11.77;;;15.70;90.80;;;;;;5056441;28;20024;-67
2021/09/30 04:03:55;;;;;;;12.80;10.40;;;15.70;90.90;;;;;;5039548;28;20028;-67
2021/09/30 04:06:22;;;;;;;12.95;10.13;;;15.70;90.80;;;;;;5056586;28;20021;-67
2021/09/30 04:08:49;;;;;;;13.10;9.57;;;15.70;90.80;;;;;;5055968;28;20135;-67
2021/09/30 04:11:16;;;;;;;11.57;9.20;;;15.70;90.60;;;;;;5039845;28;20096;-67
2021/09/30 04:13:42;;;;;;;15.70;10.38;;;15.60;90.70;;;;;;5055978;28;20391;-67
2021/09/30 04:16:09;;;;;;;11.82;9.75;;;15.60;90.40;;;;;;5055367;28;20481;-67
2021/09/30 04:18:36;;;;;;;13.60;10.55;;;15.70;90.20;;;;;;5055718;28;20067;-66
2021/09/30 04:21:02;;;;;;;11.80;10.35;;;15.70;89.70;;;;;;5055898;28;20035;-68
2021/09/30 04:23:28;;;;;;;11.35;8.80;;;15.70;88.90;;;;;;5056004;28;20052;-67
2021/09/30 04:25:55;;;;;;;12.68;9.27;;;15.70;89.10;;;;;;5055879;28;20027;-67
2021/09/30 04:28:22;;;;;;;12.25;9.70;;;15.80;89.40;;;;;;5055871;28;20047;-67
2021/09/30 04:30:54;;;;;;;13.55;9.63;;;15.80;88.60;;;;;;5055660;28;20028;-67
2021/09/30 04:33:23;;;;;;;13.63;8.55;;;15.70;88.00;;;;;;5055861;28;20024;-67
2021/09/30 04:35:52;;;;;;;13.85;7.63;;;15.70;87.50;;;;;;5038024;28;20029;-68
2021/09/30 04:38:19;;;;;;;12.75;9.73;;;15.70;87.80;;;;;;5053322;28;20033;-67
2021/09/30 04:40:45;;;;;;;12.30;8.30;;;15.70;87.40;;;;;;5073232;28;20036;-67
2021/09/30 04:43:13;;;;;;;11.45;8.27;;;15.60;87.50;;;;;;5055474;28;20048;-67
2021/09/30 04:45:40;;;;;;;13.85;9.48;;;15.60;87.30;;;;;;5053376;28;20036;-67
2021/09/30 04:48:12;;;;;;;15.73;9.80;;;15.60;87.70;;;;;;5055573;28;20032;-67
2021/09/30 04:50:39;;;;;;;12.85;8.82;;;15.50;87.70;;;;;;5054290;28;20045;-68
2021/09/30 04:53:06;;;;;;;11.95;8.95;;;15.50;87.90;;;;;;5073682;28;20032;-68
2021/09/30 04:55:39;;;;;;;13.10;8.32;;;15.50;88.10;;;;;;5055749;28;20024;-67
2021/09/30 04:58:06;;;;;;;10.88;9.20;;;15.60;88.20;;;;;;5039089;28;20039;-67
2021/09/30 05:00:35;;;;;;;13.25;9.88;;;15.60;88.00;;;;;;5054745;28;20059;-68
2021/09/30 05:03:09;;;;;;;10.95;8.50;;;15.60;88.00;;;;;;5054339;28;20032;-67
2021/09/30 05:05:37;;;;;;;10.80;8.75;;;15.60;87.50;;;;;;5038856;28;20403;-67
2021/09/30 05:08:04;;;;;;;11.88;8.38;;;15.70;87.40;;;;;;5072937;28;20403;-67
2021/09/30 05:10:33;;;;;;;15.95;8.68;;;15.60;87.20;;;;;;5055134;28;20514;-68
2021/09/30 05:13:05;;;;;;;14.98;8.82;;;15.60;88.50;;;;;;5053480;28;20040;-67
2021/09/30 05:15:32;;;;;;;10.85;7.78;;;15.60;88.60;;;;;;5055219;28;20403;-68
2021/09/30 05:18:00;;;;;;;14.18;8.80;;;15.50;89.10;;;;;;5054875;28;20029;-67
2021/09/30 05:20:26;;;;;;;13.00;8.88;;;15.50;89.30;;;;;;5054582;28;20035;-67
2021/09/30 05:22:53;;;;;;;15.00;8.63;;;15.50;88.70;;;;;;5055039;28;20036;-67
2021/09/30 05:25:19;;;;;;;14.05;8.73;;;15.60;88.20;;;;;;5055068;28;20048;-67
2021/09/30 05:27:46;;;;;;;18.05;8.40;;;15.50;88.30;;;;;;5054931;28;20049;-69
2021/09/30 05:30:14;;;;;;;15.38;10.60;;;15.60;88.80;;;;;;5072464;28;20020;-68
2021/09/30 05:32:40;;;;;;;11.30;8.65;;;15.60;88.90;;;;;;5054865;28;20032;-67
2021/09/30 05:35:14;;;;;;;12.27;8.43;;;15.60;88.50;;;;;;5038865;28;20036;-67
2021/09/30 05:37:52;;;;;;;11.88;8.80;;;15.60;88.50;;;;;;5054972;28;20033;-67
2021/09/30 05:40:20;;;;;;;14.20;9.00;;;15.60;88.40;;;;;;5071260;28;20040;-67
2021/09/30 05:42:50;;;;;;;;;;;15.60;88.50;;;;;;5054054;28;20063;-67
2021/09/30 05:45:17;;;;;;;13.52;8.82;;;15.60;88.40;;;;;;5053629;28;19913;-67
2021/09/30 05:47:44;;;;;;;13.13;8.75;;;15.60;88.30;;;;;;5056827;28;20399;-67
2021/09/30 05:50:14;;;;;;;20.10;8.73;;;15.70;88.40;;;;;;5054079;28;20103;-67
2021/09/30 05:52:44;;;;;;;13.68;9.13;;;15.70;88.10;;;;;;5070490;28;20032;-67
2021/09/30 05:55:17;;;;;;;14.05;8.52;;;15.70;88.70;;;;;;5065318;28;20460;-67
2021/09/30 05:57:44;;;;;;;11.15;8.50;;;15.70;88.70;;;;;;5045409;28;20056;-67
2021/09/30 06:00:15;;;;;;;12.45;8.80;;;15.60;88.30;;;;;;5053501;28;20025;-67
2021/09/30 06:16:34;;;;;;;15.70;8.65;;;15.70;88.40;;;;;;5051820;28;20028;-67
2021/09/30 06:19:11;;;;;;;11.23;7.82;;;15.70;88.20;;;;;;5064677;28;20029;-67
2021/09/30 06:21:40;;;;;;;12.50;7.85;;;15.70;88.80;;;;;;5049620;28;20021;-67
2021/09/30 06:24:07;;;;;;;11.20;8.05;;;15.70;88.90;;;;;;5049464;28;20040;-67
2021/09/30 06:26:42;;;;;;;11.25;7.38;;;15.70;88.80;;;;;;5049333;28;20503;-67
2021/09/30 06:29:16;;;;;;;13.73;7.15;;;15.80;88.30;;;;;;5046894;28;20028;-67
2021/09/30 06:31:43;;;;;;;11.25;8.18;;;15.90;87.90;;;;;;5047954;28;20025;-67
2021/09/30 06:34:28;;;;;;;10.93;7.18;;;16.00;87.60;;;;;;5065703;28;20041;-66
2021/09/30 06:37:06;;;;;;;11.32;7.68;;;16.10;86.60;;;;;;5045990;28;20025;-67
2021/09/30 06:39:35;;;;;;;10.73;6.43;;;16.30;86.20;;;;;;5033380;28;20037;-67
2021/09/30 06:42:03;;;;;;;11.68;7.00;;;16.30;85.40;;;;;;5048169;28;20036;-67
2021/09/30 06:44:48;;;;;;;14.30;7.97;;;16.40;85.20;;;;;;5066329;28;20066;-67
2021/09/30 06:47:27;;;;;;;11.95;7.90;;;16.40;86.10;;;;;;5061632;28;20025;-68
2021/09/30 06:50:09;;;;;;;12.77;7.07;;;16.40;87.10;;;;;;5044067;28;20044;-68
2021/09/30 06:53:01;;;;;;;11.60;7.00;;;16.60;86.40;;;;;;5040915;28;20049;-67
2021/09/30 06:55:51;;;;;;;13.25;6.75;;;16.80;85.50;;;;;;5021190;28;20385;-68
2021/09/30 06:58:46;;;;;;;9.63;6.00;;;16.80;85.00;;;;;;5051798;28;20043;-60
2021/09/30 07:01:38;;;;;;;11.65;6.13;;;16.80;84.80;;;;;;5039247;28;20041;-58
2021/09/30 07:04:23;;;;;;;11.18;6.60;;;16.80;84.20;;;;;;5069179;28;20147;-62
2021/09/30 07:07:22;;;;;;;15.80;6.15;;;16.90;84.90;;;;;;5046318;28;20507;-61
2021/09/30 07:09:48;;;;;;;10.48;7.03;;;17.00;84.00;;;;;;5069769;28;20503;-60
2021/09/30 07:12:14;;;;;;;13.10;8.15;;;17.10;84.20;;;;;;5071316;28;20041;-61
2021/09/30 07:14:42;;;;;;;14.27;7.32;;;17.10;82.40;;;;;;5084389;28;20399;-60
2021/09/30 07:17:09;;;;;;;12.10;7.38;;;17.20;81.70;;;;;;5091054;28;20052;-60
2021/09/30 07:19:36;;;;;;;9.82;6.68;;;17.20;81.80;;;;;;5066875;28;20150;-61
2021/09/30 07:22:07;;;;;;;14.73;7.72;;;17.10;80.60;;;;;;5072115;28;20021;-61
2021/09/30 07:24:38;;;;;;;8.55;7.07;;;17.10;81.10;;;;;;5072084;28;20033;-60
2021/09/30 07:27:09;;;;;;;9.50;6.05;;;17.10;80.10;;;;;;5054784;28;20040;-64
2021/09/30 07:29:36;;;;;;;8.88;6.22;;;17.20;80.50;;;;;;5058378;28;20067;-64
2021/09/30 07:32:03;;;;;;;10.88;7.25;;;17.20;80.90;;;;;;5072889;28;20031;-64
2021/09/30 07:34:30;;;;;;;17.17;7.20;;;17.20;80.90;;;;;;5071361;28;20040;-64
2021/09/30 07:36:57;;;;;;;13.30;7.70;;;17.30;81.30;;;;;;5070536;28;20037;-64
2021/09/30 07:39:23;;;;;;;15.98;7.20;;;17.30;80.70;;;;;;5053637;28;20072;-66
2021/09/30 07:41:51;;;;;;;34.03;9.40;;;17.30;79.70;;;;;;5071992;28;20029;-64
2021/09/30 07:44:18;;;;;;;34.20;10.85;;;17.30;80.20;;;;;;5054271;28;20474;-65
2021/09/30 07:46:46;;;;;;;26.38;9.60;;;17.50;80.30;;;;;;5071836;28;20024;-63
2021/09/30 07:49:13;;;;;;;17.38;9.43;;;17.60;79.50;;;;;;5071767;28;20032;-65
2021/09/30 07:51:41;;;;;;;17.33;8.98;;;17.60;77.10;;;;;;5071624;28;20048;-63
2021/09/30 07:54:08;;;;;;;15.13;8.60;;;17.60;77.90;;;;;;5070250;28;20029;-64
2021/09/30 07:56:35;;;;;;;13.85;8.45;;;17.70;78.10;;;;;;5071076;28;20047;-63
2021/09/30 07:59:02;;;;;;;15.05;8.30;;;17.80;77.30;;;;;;5071582;28;20055;-63
2021/09/30 08:01:28;;;;;;;11.80;8.02;;;17.90;76.60;;;;;;5071784;28;20037;-64
2021/09/30 08:03:57;;;;;;;13.48;9.02;;;18.00;76.80;;;;;;5072239;28;20033;-60
2021/09/30 08:06:24;;;;;;;17.85;8.75;;;18.00;77.70;;;;;;5071672;28;20060;-60
2021/09/30 08:08:51;;;;;;;13.77;10.70;;;18.10;79.30;;;;;;5071186;28;20025;-60
2021/09/30 08:11:17;;;;;;;14.20;9.95;;;18.20;80.70;;;;;;5071723;28;20037;-60
2021/09/30 08:13:44;;;;;;;14.90;11.02;;;18.20;81.40;;;;;;5075611;28;20036;-60
2021/09/30 08:16:10;;;;;;;19.85;11.38;;;18.30;81.30;;;;;;5090944;28;20032;-60
2021/09/30 08:18:37;;;;;;;11.55;9.63;;;18.30;80.40;;;;;;5092169;28;20483;-60
2021/09/30 08:21:03;;;;;;;13.82;9.02;;;18.30;77.30;;;;;;5091792;28;20020;-60
2021/09/30 08:23:29;;;;;;;14.85;9.60;;;18.40;75.70;;;;;;5090135;28;20056;-60
2021/09/30 08:25:56;;;;;;;12.52;10.52;;;18.50;74.70;;;;;;5091847;28;20028;-60
2021/09/30 08:28:22;;;;;;;14.93;10.23;;;18.50;74.70;;;;;;5091943;28;20028;-61
2021/09/30 08:30:50;;;;;;;19.30;10.52;;;18.50;74.40;;;;;;5091666;28;20460;-61
2021/09/30 08:33:22;;;;;;;12.75;9.73;;;18.60;72.60;;;;;;5091774;28;20028;-61
2021/09/30 08:35:50;;;;;;;12.50;8.45;;;18.60;70.50;;;;;;5091923;28;20039;-61
2021/09/30 08:38:17;;;;;;;9.05;6.78;;;18.70;66.40;;;;;;5074779;28;20509;-61
2021/09/30 08:40:43;;;;;;;8.57;6.65;;;18.70;64.30;;;;;;5087395;28;20043;-62
2021/09/30 08:43:10;;;;;;;9.90;6.40;;;18.80;61.90;;;;;;5074704;28;20043;-60
2021/09/30 08:45:36;;;;;;;12.60;6.53;;;18.80;60.70;;;;;;5074508;28;20024;-61
2021/09/30 08:48:06;;;;;;;8.98;6.50;;;18.90;58.70;;;;;;5075007;28;20024;-61
2021/09/30 08:50:38;;;;;;;9.85;6.20;;;19.00;57.80;;;;;;5074853;28;20375;-60
2021/09/30 08:53:10;;;;;;;10.98;6.32;;;19.00;57.10;;;;;;5074642;28;20036;-60
2021/09/30 08:55:38;;;;;;;10.77;5.72;;;19.10;57.80;;;;;;5040370;28;20048;-60
2021/09/30 08:58:08;;;;;;;9.88;6.35;;;19.20;57.90;;;;;;5075062;28;20413;-60
2021/09/30 09:00:42;;;;;;;7.53;5.68;;;19.20;56.10;;;;;;5073213;28;20044;-60
2021/09/30 09:03:08;;;;;;;8.85;5.88;;;19.20;56.40;;;;;;5074566;28;20487;-60
2021/09/30 09:05:39;;;;;;;8.25;6.38;;;19.20;55.50;;;;;;5074019;28;20036;-60
2021/09/30 09:08:10;;;;;;;8.88;6.30;;;19.20;55.30;;;;;;5056270;28;20025;-60
2021/09/30 09:10:40;;;;;;;7.88;5.55;;;19.30;55.20;;;;;;5075034;28;20107;-60
2021/09/30 09:13:18;;;;;;;12.55;6.20;;;19.40;56.00;;;;;;5074864;28;20029;-60
2021/09/30 09:15:54;;;;;;;8.77;6.15;;;19.50;54.90;;;;;;5036481;28;20044;-61
2021/09/30 09:18:29;;;;;;;9.30;6.15;;;19.50;54.80;;;;;;5054297;28;20028;-60
2021/09/30 09:21:06;;;;;;;9.18;6.53;;;19.60;55.20;;;;;;5054265;28;20033;-61
2021/09/30 09:23:41;;;;;;;10.65;7.03;;;19.70;55.30;;;;;;5036856;28;20040;-61
2021/09/30 09:26:16;;;;;;;9.68;6.10;;;19.70;55.00;;;;;;5054510;28;20052;-60
2021/09/30 09:29:09;;;;;;;8.85;5.72;;;19.80;54.80;;;;;;5053848;28;20471;-60
2021/09/30 09:31:55;;;;;;;10.35;6.72;;;19.90;54.60;;;;;;5054052;28;20033;-60
2021/09/30 09:34:32;;;;;;;13.65;7.72;;;19.90;55.00;;;;;;5054336;28;20029;-60
2021/09/30 09:37:58;;;;;;;12.32;8.60;;;19.90;54.90;;;;;;5052558;28;20108;-60
2021/09/30 09:40:20;;;;;;;10.50;7.15;;;19.90;56.60;;;;;;5050943;28;20052;-61
2021/09/30 09:42:47;;;;;;;9.57;7.03;;;20.00;57.30;;;;;;5035310;28;20064;-61
2021/09/30 09:45:14;;;;;;;16.95;8.95;;;20.10;57.80;;;;;;5052749;28;20037;-61
2021/09/30 09:47:44;;;;;;;10.00;8.00;;;20.10;56.80;;;;;;5053301;28;20028;-61
2021/09/30 09:50:20;;;;;;;11.38;9.30;;;20.20;57.50;;;;;;5053383;28;20029;-60
2021/09/30 09:52:54;;;;;;;12.68;9.20;;;20.10;59.60;;;;;;5053271;28;20029;-61
2021/09/30 09:55:24;;;;;;;11.05;8.68;;;20.20;59.90;;;;;;5054178;28;20029;-62
2021/09/30 09:58:12;;;;;;;13.20;9.48;;;20.30;60.30;;;;;;5053483;28;20041;-61
2021/09/30 10:00:58;;;;;;;15.05;10.68;;;20.30;59.50;;;;;;5053012;28;20037;-61
2021/09/30 10:03:27;;;;;;;12.57;9.80;;;20.40;59.90;;;;;;5053972;28;20037;-61
2021/09/30 10:05:58;;;;;;;14.57;9.85;;;20.40;60.00;;;;;;5052884;28;20036;-61
2021/09/30 10:08:26;;;;;;;11.18;7.25;;;20.40;60.40;;;;;;5053119;28;20388;-62
2021/09/30 10:10:55;;;;;;;10.82;8.48;;;20.50;56.70;;;;;;5035801;28;20041;-62
2021/09/30 10:13:27;;;;;;;8.45;7.03;;;20.50;57.50;;;;;;5019269;28;20041;-62
2021/09/30 10:15:54;;;;;;;10.60;7.18;;;20.50;58.10;;;;;;5073481;28;20039;-62
2021/09/30 10:18:25;;;;;;;13.38;8.35;;;20.60;57.60;;;;;;5055296;28;20028;-62
2021/09/30 10:20:52;;;;;;;13.00;8.57;;;20.60;56.90;;;;;;5072648;28;20033;-62
2021/09/30 10:23:31;;;;;;;11.48;8.32;;;20.60;57.20;;;;;;5055832;28;20037;-60
2021/09/30 10:26:19;;;;;;;11.05;8.25;;;20.70;58.20;;;;;;5054872;28;20384;-62
2021/09/30 10:28:46;;;;;;;12.43;7.75;;;20.70;57.50;;;;;;5066248;28;20041;-61
2021/09/30 10:31:25;;;;;;;11.43;8.45;;;20.80;56.30;;;;;;5063273;28;20502;-61
2021/09/30 10:33:53;;;;;;;11.13;7.53;;;20.80;55.80;;;;;;5066532;28;20032;-61
2021/09/30 10:36:37;;;;;;;11.40;7.20;;;20.80;55.50;;;;;;5040078;28;20487;-62
2021/09/30 10:39:21;;;;;;;10.80;6.15;;;20.90;54.80;;;;;;5063624;28;20376;-61
2021/09/30 10:41:56;;;;;;;8.63;5.60;;;20.90;53.50;;;;;;5060452;28;20045;-62
2021/09/30 10:44:25;;;;;;;15.93;6.05;;;21.00;52.60;;;;;;5060326;28;20506;-62
2021/09/30 10:46:55;;;;;;;7.30;4.35;;;21.00;54.30;;;;;;5056382;28;20029;-63
2021/09/30 10:49:45;;;;;;;8.93;5.80;;;21.00;51.60;;;;;;5068389;28;20374;-60
2021/09/30 10:52:17;;;;;;;8.93;5.28;;;21.10;52.20;;;;;;5046241;28;20559;-62
2021/09/30 10:55:10;;;;;;;8.85;5.53;;;21.10;53.30;;;;;;5063605;28;20017;-63
2021/09/30 10:57:44;;;;;;;6.93;5.57;;;21.20;53.50;;;;;;5051622;28;20476;-62
2021/09/30 11:00:19;;;;;;;11.65;6.63;;;21.20;52.80;;;;;;5063051;28;20591;-63
2021/09/30 11:03:01;;;;;;;11.10;8.50;;;21.30;51.70;;;;;;5056152;28;20380;-60
2021/09/30 11:05:29;;;;;;;14.70;12.10;;;21.30;51.30;;;;;;5054096;28;20040;-60
2021/09/30 11:08:18;;;;;;;20.42;17.63;;;21.30;52.50;;;;;;5054216;28;20025;-68
2021/09/30 11:11:06;;;;;;;24.02;20.73;;;21.40;53.30;;;;;;5069106;28;20048;-64
2021/09/30 11:13:55;;;;;;;23.45;18.48;;;21.40;54.10;;;;;;5069941;28;20024;-62
2021/09/30 11:16:33;;;;;;;24.08;13.20;;;21.40;53.80;;;;;;5039999;28;20043;-63
2021/09/30 11:19:01;;;;;;;11.15;9.10;;;21.50;51.50;;;;;;5065762;28;20033;-62
2021/09/30 11:21:34;;;;;;;12.60;8.00;;;21.50;51.40;;;;;;5071322;28;20037;-67
2021/09/30 11:24:06;;;;;;;9.43;7.63;;;21.50;50.00;;;;;;5066233;28;20037;-67
2021/09/30 11:26:51;;;;;;;9.70;6.57;;;21.60;49.50;;;;;;5065300;28;20033;-67
2021/09/30 11:29:21;;;;;;;10.38;7.32;;;21.60;49.70;;;;;;5063762;28;20047;-67
2021/09/30 11:31:56;;;;;;;10.43;6.85;;;21.60;49.60;;;;;;5058936;28;20035;-68
2021/09/30 11:34:38;;;;;;;10.55;6.63;;;21.60;50.00;;;;;;5060316;28;20040;-63
2021/09/30 11:37:26;;;;;;;9.82;4.72;;;21.70;49.40;;;;;;5062739;28;20028;-61
2021/09/30 11:39:56;;;;;;;9.15;4.30;;;21.70;46.40;;;;;;5062440;28;20044;-62
2021/09/30 11:42:25;;;;;;;5.18;3.75;;;21.70;47.00;;;;;;5058330;28;20040;-64
2021/09/30 11:44:58;;;;;;;5.73;3.23;;;21.70;46.50;;;;;;5063890;28;20037;-62
2021/09/30 11:47:26;;;;;;;5.25;3.13;;;21.70;47.80;;;;;;5052000;28;20404;-61
2021/09/30 11:49:52;;;;;;;5.13;3.20;;;21.80;49.00;;;;;;5066349;28;20380;-70
2021/09/30 11:52:19;;;;;;;7.88;3.78;;;21.80;47.00;;;;;;5070541;28;20377;-63
2021/09/30 11:54:45;;;;;;;4.10;2.70;;;21.80;48.40;;;;;;5067789;28;20044;-62
2021/09/30 11:57:38;;;;;;;9.23;6.40;;;21.80;48.00;;;;;;5065714;28;20029;-63
2021/09/30 12:00:12;;;;;;;7.15;4.70;;;21.80;46.50;;;;;;5063297;28;20041;-62
2021/09/30 12:03:03;;;;;;;7.53;5.72;;;21.90;45.20;;;;;;5065506;28;20036;-74
2021/09/30 12:05:33;;;;;;;13.07;10.85;;;21.90;43.90;;;;;;5062605;28;20138;-74
2021/09/30 12:08:03;;;;;;;12.32;8.93;;;21.90;45.10;;;;;;5067216;28;20036;-68
2021/09/30 12:10:32;;;;;;;7.65;4.53;;;22.00;44.40;;;;;;5070365;28;20048;-73
2021/09/30 12:12:58;;;;;;;9.07;4.70;;;22.00;44.30;;;;;;5056748;28;20392;-62
2021/09/30 12:15:26;;;;;;;8.27;5.40;;;22.00;44.70;;;;;;5072271;28;20064;-65
2021/09/30 12:17:52;;;;;;;6.22;4.30;;;22.00;43.90;;;;;;5068868;28;20040;-69
2021/09/30 12:20:20;;;;;;;5.75;3.55;;;22.10;44.10;;;;;;5053915;28;20037;-71
2021/09/30 12:22:50;;;;;;;7.68;2.85;;;22.10;43.70;;;;;;5045786;28;20140;-70
2021/09/30 12:25:27;;;;;;;4.22;2.65;;;22.10;43.70;;;;;;5058501;28;20047;-69
2021/09/30 12:27:59;;;;;;;4.53;2.92;;;22.10;43.70;;;;;;5055865;28;20037;-69
2021/09/30 12:30:28;;;;;;;4.75;2.97;;;22.10;42.40;;;;;;5056226;28;20029;-69
2021/09/30 12:33:00;;;;;;;4.38;3.42;;;22.10;42.50;;;;;;5054321;28;20035;-68
2021/09/30 12:35:28;;;;;;;4.95;3.38;;;22.10;43.00;;;;;;5054280;28;20047;-70
2021/09/30 12:38:01;;;;;;;6.88;3.80;;;22.10;43.80;;;;;;5041355;28;20385;-70
2021/09/30 12:40:34;;;;;;;7.53;3.80;;;22.10;44.10;;;;;;5060297;28;20032;-69
2021/09/30 12:43:18;;;;;;;8.43;4.47;;;22.20;44.90;;;;;;5062970;28;20028;-69
2021/09/30 12:45:56;;;;;;;8.27;6.45;;;22.20;45.70;;;;;;5069164;28;20068;-70
2021/09/30 12:48:25;;;;;;;8.02;5.90;;;22.20;46.90;;;;;;5063160;28;20036;-69
2021/09/30 12:50:58;;;;;;;9.35;5.53;;;22.20;47.60;;;;;;5066246;28;20033;-70
2021/09/30 12:53:25;;;;;;;14.05;7.93;;;22.20;48.20;;;;;;5068967;28;20416;-71
2021/09/30 12:56:09;;;;;;;10.32;7.20;;;22.20;47.40;;;;;;5061467;28;20044;-69
2021/09/30 12:58:41;;;;;;;9.15;7.10;;;22.10;48.00;;;;;;5065363;28;20048;-70
2021/09/30 13:01:27;;;;;;;11.18;6.95;;;22.10;48.30;;;;;;5070410;28;20017;-69
2021/09/30 13:04:13;;;;;;;10.43;7.35;;;22.10;48.40;;;;;;5071307;28;20103;-68
2021/09/30 13:07:01;;;;;;;10.73;6.68;;;22.10;48.20;;;;;;5035465;28;20362;-70
2021/09/30 13:09:30;;;;;;;17.25;7.63;;;22.10;48.40;;;;;;5067851;28;20041;-70
2021/09/30 13:12:01;;;;;;;12.30;7.40;;;22.20;48.90;;;;;;5047375;28;20489;-69
2021/09/30 13:14:34;;;;;;;11.48;8.18;;;22.20;49.00;;;;;;5071174;28;20052;-70
2021/09/30 13:17:06;;;;;;;12.95;8.95;;;22.20;48.30;;;;;;5061512;28;20041;-69
2021/09/30 13:19:42;;;;;;;10.65;7.30;;;22.20;48.60;;;;;;5057768;28;20064;-68
2021/09/30 13:22:10;;;;;;;10.80;7.82;;;22.20;49.00;;;;;;5054522;28;20041;-70
2021/09/30 13:24:38;;;;;;;11.85;8.57;;;22.20;49.00;;;;;;5054926;28;20059;-69
2021/09/30 13:27:07;;;;;;;13.68;9.18;;;22.20;48.80;;;;;;5055982;28;20036;-69
2021/09/30 13:29:34;;;;;;;14.57;8.07;;;22.20;49.00;;;;;;5056983;28;20488;-69
2021/09/30 13:32:00;;;;;;;13.02;7.22;;;22.20;49.70;;;;;;5072706;28;20021;-69
2021/09/30 13:34:27;;;;;;;10.05;8.20;;;22.30;49.80;;;;;;5073655;28;20035;-70
2021/09/30 13:36:53;;;;;;;12.50;9.75;;;22.30;50.50;;;;;;5042042;28;20041;-70
2021/09/30 13:39:20;;;;;;;12.00;9.07;;;22.30;50.30;;;;;;5054896;28;20056;-70
2021/09/30 13:41:46;;;;;;;12.80;9.98;;;22.30;50.20;;;;;;5054663;28;20056;-68
2021/09/30 13:44:13;;;;;;;11.30;8.90;;;22.30;50.20;;;;;;5052674;28;20049;-69
2021/09/30 13:46:39;;;;;;;11.27;9.07;;;22.30;50.30;;;;;;5053945;28;20028;-69
2021/09/30 13:49:06;;;;;;;12.38;9.02;;;22.30;50.20;;;;;;5054874;28;20033;-69
2021/09/30 13:51:33;;;;;;;13.40;9.20;;;22.30;50.80;;;;;;5073166;28;20024;-69
2021/09/30 13:54:00;;;;;;;12.90;8.32;;;22.30;50.30;;;;;;5070382;28;20503;-71
2021/09/30 13:56:28;;;;;;;18.67;9.38;;;22.30;50.80;;;;;;5073406;28;20032;-72
2021/09/30 13:58:54;;;;;;;14.90;8.50;;;22.30;50.80;;;;;;5073942;28;20033;-70
2021/09/30 14:01:21;;;;;;;11.38;9.40;;;22.40;51.60;;;;;;5073411;28;20938;-71
2021/09/30 14:03:48;;;;;;;13.82;9.90;;;22.40;51.30;;;;;;5072743;28;20043;-70
2021/09/30 14:06:17;;;;;;;11.90;9.32;;;22.40;50.80;;;;;;5072688;28;20036;-69
2021/09/30 14:08:45;;;;;;;14.73;10.23;;;22.50;51.20;;;;;;5071716;28;20416;-70
2021/09/30 14:11:13;;;;;;;17.80;10.63;;;22.50;51.40;;;;;;5072416;28;20031;-70
2021/09/30 14:13:41;;;;;;;14.65;9.90;;;22.50;52.00;;;;;;5073183;28;20089;-70
2021/09/30 14:16:08;;;;;;;20.67;14.70;;;22.50;52.40;;;;;;5073478;28;20349;-71
2021/09/30 14:18:35;;;;;;;23.27;16.42;;;22.50;55.50;;;;;;5072618;28;20029;-69
2021/09/30 14:21:02;;;;;;;20.27;16.58;;;22.50;58.20;;;;;;5073092;28;20035;-70
2021/09/30 14:23:29;;;;;;;19.92;15.93;;;22.50;58.50;;;;;;5073372;28;20399;-71
2021/09/30 14:25:58;;;;;;;19.83;14.60;;;22.50;59.00;;;;;;5072462;28;20379;-71
2021/09/30 14:28:25;;;;;;;19.60;15.45;;;22.50;59.80;;;;;;5073190;28;20468;-70
2021/09/30 14:30:56;;;;;;;18.73;14.73;;;22.50;59.40;;;;;;5072724;28;20028;-70
2021/09/30 14:33:28;;;;;;;22.95;16.52;;;22.50;59.50;;;;;;5072400;28;20036;-70
2021/09/30 14:35:55;;;;;;;20.98;16.73;;;22.40;59.60;;;;;;5071072;28;20403;-69
2021/09/30 14:38:22;;;;;;;19.60;15.48;;;22.30;59.70;;;;;;5072875;28;20048;-71
2021/09/30 14:40:51;;;;;;;17.92;14.40;;;22.20;60.00;;;;;;5072311;28;20041;-70
2021/09/30 14:43:18;;;;;;;20.95;16.30;;;22.20;59.80;;;;;;5072542;28;20029;-69
2021/09/30 14:45:45;;;;;;;22.38;14.07;;;22.10;59.70;;;;;;5072613;28;20075;-70
2021/09/30 14:48:12;;;;;;;17.17;14.05;;;22.10;59.80;;;;;;5071414;28;20488;-69
2021/09/30 14:50:40;;;;;;;19.52;14.77;;;22.10;59.80;;;;;;5072327;28;20037;-69
2021/09/30 14:53:07;;;;;;;18.50;14.80;;;22.10;59.50;;;;;;5072606;28;20376;-68
2021/09/30 14:55:34;;;;;;;15.95;13.60;;;22.10;60.30;;;;;;5072331;28;20380;-70
2021/09/30 14:58:01;;;;;;;16.38;12.85;;;22.10;59.50;;;;;;5072670;28;20476;-70
2021/09/30 15:00:27;;;;;;;15.70;13.00;;;22.10;59.50;;;;;;5071702;28;20028;-70
2021/09/30 15:02:54;;;;;;;14.82;12.30;;;22.10;59.40;;;;;;5072211;28;20448;-70
2021/09/30 15:05:20;;;;;;;16.90;13.45;;;22.10;58.90;;;;;;5072924;28;20033;-70
2021/09/30 15:07:47;;;;;;;16.98;12.82;;;22.10;58.20;;;;;;5072247;28;20028;-69
2021/09/30 15:10:13;;;;;;;12.80;11.10;;;22.00;58.20;;;;;;5053633;28;20041;-72
2021/09/30 15:12:40;;;;;;;16.80;12.15;;;22.10;58.10;;;;;;5071572;28;20044;-69
2021/09/30 15:15:07;;;;;;;13.48;10.45;;;22.10;58.00;;;;;;5053886;28;20045;-69
2021/09/30 15:22:34;;;;;;;19.38;13.50;;;22.20;57.70;;;;;;5055132;28;20028;-69
2021/09/30 15:25:01;;;;;;;16.75;13.65;;;22.10;58.20;;;;;;5071045;28;20502;-69
2021/09/30 15:27:27;;;;;;;13.93;12.00;;;22.10;58.60;;;;;;5072329;28;20028;-70
2021/09/30 15:29:54;;;;;;;17.67;15.25;;;22.10;59.40;;;;;;5071977;28;20036;-69
2021/09/30 15:32:20;;;;;;;18.23;14.23;;;22.10;60.20;;;;;;5072244;28;20047;-70
2021/09/30 15:34:48;;;;;;;22.63;16.23;;;22.10;60.30;;;;;;5072167;28;20024;-70
2021/09/30 15:37:16;;;;;;;18.10;15.35;;;22.10;60.40;;;;;;5072845;28;20040;-70
2021/09/30 15:39:42;;;;;;;19.13;16.05;;;22.10;60.70;;;;;;5071800;28;20044;-69
2021/09/30 15:42:12;;;;;;;18.17;15.65;;;22.10;61.00;;;;;;5072191;28;20021;-70
2021/09/30 15:44:39;;;;;;;28.92;16.35;;;22.10;61.40;;;;;;5072531;28;20028;-69
2021/09/30 15:47:06;;;;;;;21.65;16.55;;;22.10;62.00;;;;;;5073077;28;20036;-70
2021/09/30 15:49:32;;;;;;;27.10;17.75;;;22.00;62.50;;;;;;5075022;28;20052;-70
2021/09/30 15:51:59;;;;;;;18.90;16.75;;;22.00;62.80;;;;;;5070957;28;20528;-69
2021/09/30 15:54:25;;;;;;;18.70;15.65;;;22.00;63.30;;;;;;5063932;28;20036;-69
2021/09/30 15:56:52;;;;;;;18.05;16.20;;;22.00;63.40;;;;;;5071631;28;20045;-69